Girouxville, Canada
Current Conditions -  °F | °C
As of 8:00 PM on Wednesday 22 Oct 2014 (Local Time) from CYPE Reporting Station
Few Clouds Few Clouds  
Wind Chill:   Ceiling: Unl
Heat Index:   Visibility: 15mi
Dew Point:   Wind: 2mph
Humidity: 87%   Direction: NA
Pressure: 29.52"   Gusts: NA
Location:  55.75°N, 117.33°W
Report Text: CYPE 230200Z VRB02KT 15SM FEW060 FEW250 03/01 A2952 RMK SC1CI1 SLP019
Loading
Personal Weather Stations






























Interactive Weather Map
Tropical Storm Tracking
New forecast layout! Learn more

10-Day Weather Forecast

Advertisements
Track Severe Weather on mobile